Time;durP1;ratioP1;P1;durP2;ratioP2;P2;SDS_P1;SDS_P2;PMS_P1;PMS_P2;Temp;Humidity;BMP_temperature;BMP_pressure;BME280_temperature;BME280_humidity;BME280_pressure;Samples;Min_cycle;Max_cycle;Signal;HPM_P1;HPM_P2
2022/05/21 00:00:57;;;;;;;10.15;3.97;;;13.40;99.90;;;;;;4948373;29;20044;-81
2022/05/21 00:03:23;;;;;;;10.77;3.53;;;13.50;99.90;;;;;;4941459;29;20071;-81
2022/05/21 00:05:49;;;;;;;10.85;3.88;;;13.50;99.90;;;;;;4949859;29;20425;-81
2022/05/21 00:08:15;;;;;;;7.72;3.60;;;13.60;99.90;;;;;;4898651;29;20060;-81
2022/05/21 00:10:40;;;;;;;9.65;3.28;;;13.60;99.90;;;;;;4929145;29;20066;-82
2022/05/21 00:13:07;;;;;;;13.95;4.00;;;13.70;99.90;;;;;;4925302;29;20048;-81
2022/05/21 00:15:35;;;;;;;11.90;3.80;;;13.70;99.90;;;;;;4948825;29;20504;-81
2022/05/21 00:18:01;;;;;;;9.40;2.97;;;13.70;99.90;;;;;;4931341;29;20063;-82
2022/05/21 00:23:18;;;;;;;8.73;2.70;;;13.80;99.90;;;;;;4926708;29;20059;-81
2022/05/21 00:25:46;;;;;;;7.88;2.72;;;13.80;99.90;;;;;;4932678;29;20055;-81
2022/05/21 00:28:12;;;;;;;9.25;2.58;;;13.80;99.90;;;;;;4916298;29;20122;-81
2022/05/21 00:30:38;;;;;;;10.05;2.92;;;13.90;99.90;;;;;;4929602;29;20059;-81
2022/05/21 00:33:04;;;;;;;10.93;3.10;;;13.90;99.90;;;;;;4939434;29;20055;-81
2022/05/21 00:35:30;;;;;;;13.82;3.25;;;13.90;99.90;;;;;;4916628;29;20055;-80
2022/05/21 00:37:56;;;;;;;11.70;3.10;;;13.90;99.90;;;;;;4925424;29;20047;-81
2022/05/21 00:40:22;;;;;;;14.20;3.63;;;13.90;99.90;;;;;;4909512;29;20130;-81
2022/05/21 00:42:48;;;;;;;12.10;3.58;;;13.80;99.90;;;;;;4947233;29;20158;-81
2022/05/21 00:45:15;;;;;;;12.57;3.40;;;13.80;99.90;;;;;;4909003;29;20491;-81
2022/05/21 00:47:41;;;;;;;12.43;3.22;;;13.80;99.90;;;;;;4925645;29;20059;-81
2022/05/21 00:50:10;;;;;;;13.90;3.30;;;13.80;99.90;;;;;;4930000;29;20434;-81
2022/05/21 00:52:38;;;;;;;10.13;2.92;;;13.70;99.90;;;;;;4916364;29;20048;-81
2022/05/21 00:55:22;;;;;;;12.93;4.05;;;13.70;99.90;;;;;;4915480;29;20421;-81
2022/05/21 01:00:45;;;;;;;16.80;3.88;;;13.70;99.90;;;;;;4924252;29;20527;-81
2022/05/21 01:03:12;;;;;;;12.93;3.58;;;13.70;99.90;;;;;;4907132;29;20055;-81
2022/05/21 01:05:39;;;;;;;16.00;3.42;;;13.70;99.90;;;;;;4915439;29;20168;-80
2022/05/21 01:08:05;;;;;;;14.27;3.60;;;13.70;99.90;;;;;;4947477;29;20394;-81
2022/05/21 01:10:40;;;;;;;13.65;3.70;;;13.70;99.90;;;;;;4947709;29;20056;-81
2022/05/21 01:13:14;;;;;;;9.05;3.25;;;13.70;99.90;;;;;;4929682;28;20130;-82
2022/05/21 01:15:43;;;;;;;14.32;4.13;;;13.70;99.90;;;;;;4947468;29;20059;-81
2022/05/21 01:18:10;;;;;;;12.18;3.20;;;13.80;99.90;;;;;;4915283;29;20052;-82
2022/05/21 01:20:48;;;;;;;10.73;2.90;;;13.80;99.90;;;;;;4939181;28;20051;-82
2022/05/21 01:23:15;;;;;;;16.20;3.38;;;13.80;99.90;;;;;;4928479;29;20078;-82
2022/05/21 01:25:43;;;;;;;16.23;3.65;;;13.80;99.90;;;;;;4931611;29;20061;-82
2022/05/21 01:28:13;;;;;;;13.98;3.22;;;13.90;99.90;;;;;;4915477;29;20094;-81
2022/05/21 01:30:49;;;;;;;17.25;3.80;;;13.90;99.90;;;;;;4900478;29;20110;-81
2022/05/21 01:33:17;;;;;;;13.73;2.92;;;13.90;99.90;;;;;;4945040;28;20509;-81
2022/05/21 01:35:45;;;;;;;13.35;2.90;;;14.00;99.90;;;;;;4931488;29;20043;-81
2022/05/21 01:38:13;;;;;;;12.88;3.20;;;14.00;99.90;;;;;;4924041;29;20516;-82
2022/05/21 01:40:39;;;;;;;12.23;3.08;;;14.00;99.90;;;;;;4930284;29;20063;-81
2022/05/21 01:45:52;;;;;;;11.05;3.08;;;14.00;99.90;;;;;;4930532;29;20142;-81
2022/05/21 01:48:21;;;;;;;14.43;3.75;;;14.00;99.90;;;;;;4929824;29;20052;-81
2022/05/21 01:50:48;;;;;;;17.65;3.22;;;14.10;99.90;;;;;;4930850;29;20056;-81
2022/05/21 01:53:15;;;;;;;11.63;2.85;;;14.00;99.90;;;;;;4914243;29;20052;-81
2022/05/21 01:55:41;;;;;;;14.30;3.28;;;14.00;99.90;;;;;;4929645;29;20062;-81
2022/05/21 01:58:07;;;;;;;14.38;3.40;;;14.10;99.90;;;;;;4907281;29;20057;-81
2022/05/21 02:00:33;;;;;;;17.08;3.42;;;14.00;99.90;;;;;;4930648;29;20047;-80
2022/05/21 02:02:59;;;;;;;16.38;3.63;;;14.10;99.90;;;;;;4923555;29;20466;-81
2022/05/21 02:05:25;;;;;;;17.08;3.72;;;14.00;99.90;;;;;;4898059;29;20048;-82
2022/05/21 02:07:50;;;;;;;16.73;4.18;;;14.00;99.90;;;;;;4937759;29;20096;-81
2022/05/21 02:10:16;;;;;;;15.38;3.83;;;14.00;99.90;;;;;;4914814;29;20055;-81
2022/05/21 02:12:42;;;;;;;10.25;3.13;;;14.00;99.90;;;;;;4945587;29;20055;-81
2022/05/21 02:15:08;;;;;;;17.15;4.35;;;14.00;99.90;;;;;;4911950;29;20085;-80
2022/05/21 02:17:34;;;;;;;18.77;3.83;;;14.00;99.90;;;;;;4930155;29;20063;-81
2022/05/21 02:20:00;;;;;;;11.98;3.00;;;14.00;99.90;;;;;;4946938;29;20055;-81
2022/05/21 02:22:27;;;;;;;12.23;3.33;;;14.00;99.90;;;;;;4937598;28;20409;-81
2022/05/21 02:24:53;;;;;;;15.45;3.47;;;13.90;99.90;;;;;;4923352;29;20062;-81
2022/05/21 02:27:19;;;;;;;14.98;3.65;;;14.00;99.90;;;;;;4914192;29;20052;-81
2022/05/21 02:29:45;;;;;;;17.77;3.42;;;13.90;99.90;;;;;;4912527;29;20051;-81
2022/05/21 02:32:12;;;;;;;11.38;2.92;;;13.90;99.90;;;;;;4928495;29;20048;-81
2022/05/21 02:34:39;;;;;;;11.05;3.08;;;13.90;99.90;;;;;;4892305;29;20059;-81
2022/05/21 02:39:50;;;;;;;17.02;4.18;;;13.80;99.90;;;;;;4930428;29;20055;-81
2022/05/21 02:45:03;;;;;;;15.77;4.50;;;13.80;99.90;;;;;;4917265;29;20055;-82
2022/05/21 02:47:30;;;;;;;11.90;3.03;;;13.70;99.90;;;;;;4936812;29;20489;-80
2022/05/21 02:49:56;;;;;;;11.50;3.25;;;13.70;99.90;;;;;;4930061;29;20130;-81
2022/05/21 02:52:22;;;;;;;17.13;3.97;;;13.70;99.90;;;;;;4913265;29;20127;-81
2022/05/21 02:54:48;;;;;;;11.30;3.13;;;13.70;99.90;;;;;;4930447;29;20540;-81
2022/05/21 02:57:15;;;;;;;13.13;3.33;;;13.60;99.90;;;;;;4892546;29;20051;-81
2022/05/21 02:59:41;;;;;;;11.32;3.30;;;13.60;99.90;;;;;;4924198;28;20091;-81
2022/05/21 03:02:07;;;;;;;13.38;3.17;;;13.60;99.90;;;;;;4929345;29;20083;-81
2022/05/21 03:04:34;;;;;;;14.80;2.85;;;13.60;99.90;;;;;;4928820;29;20047;-81
2022/05/21 03:07:01;;;;;;;12.88;3.25;;;13.50;99.90;;;;;;4944310;29;20051;-81
2022/05/21 03:12:11;;;;;;;17.73;3.30;;;13.50;99.90;;;;;;4922716;29;20083;-78
2022/05/21 03:14:38;;;;;;;10.20;3.13;;;13.50;99.90;;;;;;4929577;29;20082;-80
2022/05/21 03:17:04;;;;;;;13.60;3.03;;;13.50;99.90;;;;;;4928890;29;20747;-81
2022/05/21 03:19:32;;;;;;;11.00;3.30;;;13.50;99.90;;;;;;4928654;29;20056;-81
2022/05/21 03:21:58;;;;;;;12.15;3.22;;;13.50;99.90;;;;;;4944728;29;20461;-80
2022/05/21 03:24:25;;;;;;;11.52;2.72;;;13.40;99.90;;;;;;4922204;29;20429;-81
2022/05/21 03:26:51;;;;;;;14.80;3.53;;;13.50;99.90;;;;;;4922749;29;20047;-81
2022/05/21 03:29:17;;;;;;;10.13;2.92;;;13.50;99.90;;;;;;4934806;28;20103;-81
2022/05/21 03:31:43;;;;;;;11.80;2.97;;;13.50;99.90;;;;;;4949131;29;20128;-80
2022/05/21 03:34:09;;;;;;;12.50;2.63;;;13.40;99.90;;;;;;4902122;29;20043;-80
2022/05/21 03:36:35;;;;;;;9.23;2.78;;;13.40;99.90;;;;;;4949072;29;20091;-80
2022/05/21 03:39:06;;;;;;;12.23;2.67;;;13.40;99.90;;;;;;4946418;29;20506;-81
2022/05/21 03:41:32;;;;;;;11.52;2.90;;;13.40;99.90;;;;;;4932795;29;20083;-81
2022/05/21 03:44:00;;;;;;;9.52;3.08;;;13.40;99.90;;;;;;4916768;29;20043;-81
2022/05/21 03:46:27;;;;;;;11.98;3.15;;;13.40;99.90;;;;;;4932372;29;20060;-81
2022/05/21 03:48:52;;;;;;;12.35;3.15;;;13.40;99.90;;;;;;4948170;29;20473;-81
2022/05/21 03:51:18;;;;;;;11.48;2.88;;;13.40;99.90;;;;;;4948177;29;20055;-81
2022/05/21 03:53:44;;;;;;;12.52;2.90;;;13.40;99.90;;;;;;4932952;29;20052;-81
2022/05/21 03:56:10;;;;;;;12.38;2.92;;;13.40;99.90;;;;;;4948317;29;20230;-81
2022/05/21 03:58:36;;;;;;;11.60;2.85;;;13.30;99.90;;;;;;4949061;29;20902;-80
2022/05/21 04:01:02;;;;;;;15.82;4.07;;;13.40;99.90;;;;;;4946777;29;20051;-80
2022/05/21 04:03:28;;;;;;;9.95;2.80;;;13.40;99.90;;;;;;4925014;29;20047;-81
2022/05/21 04:05:55;;;;;;;11.90;2.72;;;13.40;99.90;;;;;;4917396;29;20067;-81
2022/05/21 04:08:21;;;;;;;12.95;3.15;;;13.30;99.90;;;;;;4948620;28;20073;-81
2022/05/21 04:10:48;;;;;;;10.18;3.05;;;13.30;99.90;;;;;;4946922;29;20552;-81
2022/05/21 04:13:14;;;;;;;14.85;3.00;;;13.40;99.90;;;;;;4932385;29;20130;-81
2022/05/21 04:15:40;;;;;;;11.40;2.92;;;13.30;99.90;;;;;;4900829;29;20102;-81
2022/05/21 04:18:05;;;;;;;10.77;3.00;;;13.40;99.90;;;;;;4932512;29;20055;-81
2022/05/21 04:20:31;;;;;;;10.48;2.80;;;13.30;99.90;;;;;;4946794;29;20052;-81
2022/05/21 04:22:57;;;;;;;10.77;2.60;;;13.30;99.90;;;;;;4916891;29;20051;-81
2022/05/21 04:25:23;;;;;;;15.02;3.63;;;13.30;99.90;;;;;;4931730;29;20473;-80
2022/05/21 04:27:49;;;;;;;11.85;2.42;;;13.30;99.90;;;;;;4932554;29;20187;-81
2022/05/21 04:30:25;;;;;;;11.80;2.53;;;13.30;99.90;;;;;;4931673;29;20051;-81
2022/05/21 04:32:52;;;;;;;15.13;2.92;;;13.30;99.90;;;;;;4946179;28;20086;-81
2022/05/21 04:35:19;;;;;;;12.38;2.97;;;13.30;99.90;;;;;;4931529;29;20572;-81
2022/05/21 04:37:45;;;;;;;10.30;2.67;;;13.30;99.90;;;;;;4925262;29;20107;-81
2022/05/21 04:40:21;;;;;;;10.43;3.17;;;13.20;99.90;;;;;;4948619;28;20157;-81
2022/05/21 04:42:47;;;;;;;;;;;13.30;99.90;;;;;;4947278;28;20039;-81
2022/05/21 04:45:14;;;;;;;13.70;2.70;;;13.20;99.90;;;;;;4925681;29;20021;-81
2022/05/21 04:47:40;;;;;;;11.38;2.88;;;13.30;99.90;;;;;;4946604;29;20118;-81
2022/05/21 04:50:07;;;;;;;12.45;3.20;;;13.30;99.90;;;;;;4925502;29;20056;-81
2022/05/21 04:52:34;;;;;;;10.73;2.58;;;13.30;99.90;;;;;;4923914;29;20044;-81
2022/05/21 04:55:07;;;;;;;13.68;3.33;;;13.30;99.90;;;;;;4926955;29;20476;-80
2022/05/21 04:57:33;;;;;;;12.07;2.63;;;13.30;99.90;;;;;;4931397;29;20044;-81
2022/05/21 04:59:58;;;;;;;13.98;3.05;;;13.40;99.90;;;;;;4948010;29;20474;-81
2022/05/21 05:02:24;;;;;;;12.02;2.80;;;13.30;99.90;;;;;;4946453;29;20043;-81
2022/05/21 05:04:50;;;;;;;10.02;2.95;;;13.40;99.90;;;;;;4947687;29;20048;-81
2022/05/21 05:07:19;;;;;;;11.02;2.63;;;13.40;99.90;;;;;;4931909;29;20056;-81
2022/05/21 05:09:46;;;;;;;13.30;2.80;;;13.40;99.90;;;;;;4900709;29;20067;-81
2022/05/21 05:12:12;;;;;;;9.20;2.60;;;13.50;99.90;;;;;;4947346;29;20064;-81
2022/05/21 05:14:38;;;;;;;10.05;2.60;;;13.40;99.90;;;;;;4928559;29;20482;-82
2022/05/21 05:17:05;;;;;;;11.40;2.40;;;13.40;99.90;;;;;;4932564;29;20044;-81
2022/05/21 05:19:33;;;;;;;11.60;3.22;;;13.50;99.90;;;;;;4923738;29;20183;-81
2022/05/21 05:21:59;;;;;;;14.68;2.90;;;13.50;99.90;;;;;;4939502;28;20051;-81
2022/05/21 05:24:25;;;;;;;12.13;2.30;;;13.40;99.90;;;;;;4945539;29;20050;-82
2022/05/21 05:26:50;;;;;;;13.18;2.50;;;13.50;99.90;;;;;;4900272;29;20043;-81
2022/05/21 05:29:16;;;;;;;9.20;2.75;;;13.50;99.90;;;;;;4947500;29;20445;-81
2022/05/21 05:31:42;;;;;;;13.02;2.83;;;13.50;99.90;;;;;;4930888;29;20047;-81
2022/05/21 05:34:08;;;;;;;12.80;2.40;;;13.50;99.90;;;;;;4947005;28;20055;-81
2022/05/21 05:36:34;;;;;;;8.25;2.47;;;13.50;99.90;;;;;;4930142;29;20110;-81
2022/05/21 05:38:59;;;;;;;9.73;2.70;;;13.50;99.90;;;;;;4939537;29;20052;-81
2022/05/21 05:41:27;;;;;;;8.57;2.25;;;13.60;99.90;;;;;;4914457;29;20067;-81
2022/05/21 05:43:54;;;;;;;12.57;2.63;;;13.60;99.90;;;;;;4931410;29;20520;-81
2022/05/21 05:46:20;;;;;;;10.10;3.08;;;13.60;99.90;;;;;;4930177;29;20507;-81
2022/05/21 05:48:45;;;;;;;11.25;2.95;;;13.70;99.90;;;;;;4946360;29;20048;-81
2022/05/21 05:51:11;;;;;;;10.10;2.85;;;13.70;99.90;;;;;;4915708;29;20105;-81
2022/05/21 05:53:37;;;;;;;14.73;2.67;;;13.70;99.90;;;;;;4945737;29;20148;-81
2022/05/21 05:56:08;;;;;;;10.85;2.45;;;13.80;99.90;;;;;;4930450;29;20051;-81
2022/05/21 06:01:19;;;;;;;13.20;2.90;;;13.80;99.90;;;;;;4923785;29;20052;-82
2022/05/21 06:03:45;;;;;;;8.23;2.17;;;13.80;99.90;;;;;;4923961;28;20391;-82
2022/05/21 06:06:10;;;;;;;11.98;2.40;;;13.90;99.90;;;;;;4930020;29;20605;-83
2022/05/21 06:08:36;;;;;;;13.20;3.30;;;13.90;99.90;;;;;;4899081;29;20062;-82
2022/05/21 06:11:02;;;;;;;11.15;2.58;;;13.90;99.90;;;;;;4924273;29;20051;-82
2022/05/21 06:13:28;;;;;;;10.32;2.70;;;13.90;99.90;;;;;;4930262;29;20086;-83
2022/05/21 06:15:54;;;;;;;11.15;2.85;;;14.00;99.90;;;;;;4909490;29;20051;-83
2022/05/21 06:18:20;;;;;;;9.40;2.90;;;14.00;99.90;;;;;;4938429;29;20051;-85
2022/05/21 06:20:48;;;;;;;13.23;3.22;;;14.00;99.90;;;;;;4932063;29;20071;-85
2022/05/21 06:23:15;;;;;;;13.55;2.90;;;14.10;99.90;;;;;;4941170;29;20047;-85
2022/05/21 06:25:40;;;;;;;12.02;2.65;;;14.20;99.90;;;;;;4930965;29;20063;-84
2022/05/21 06:28:07;;;;;;;13.40;3.15;;;14.20;99.90;;;;;;4913964;29;20055;-84
2022/05/21 06:30:37;;;;;;;10.32;2.53;;;14.20;99.90;;;;;;4899729;29;20142;-84
2022/05/21 06:33:38;;;;;;;11.05;3.17;;;14.20;99.90;;;;;;4930736;29;20131;-85
2022/05/21 06:36:11;;;;;;;13.02;2.95;;;14.20;99.90;;;;;;4946861;29;20048;-87
2022/05/21 06:38:38;;;;;;;10.32;2.53;;;14.30;99.90;;;;;;4940144;29;20047;-85
2022/05/21 06:41:11;;;;;;;11.15;2.53;;;14.30;99.90;;;;;;4930017;29;20159;-86
2022/05/21 06:43:37;;;;;;;16.10;3.08;;;14.30;99.90;;;;;;4926423;29;20496;-86
2022/05/21 06:46:06;;;;;;;9.15;2.47;;;14.30;99.90;;;;;;4929821;29;20048;-85
2022/05/21 06:48:32;;;;;;;8.75;2.67;;;14.30;99.90;;;;;;4946665;28;20063;-87
2022/05/21 06:51:01;;;;;;;12.23;3.05;;;14.30;99.90;;;;;;4932140;29;20159;-85
2022/05/21 06:53:27;;;;;;;8.70;2.50;;;14.40;99.90;;;;;;4946855;28;20040;-86
2022/05/21 06:55:54;;;;;;;11.98;2.60;;;14.50;99.90;;;;;;4932914;29;20054;-85
2022/05/21 06:58:20;;;;;;;12.48;2.38;;;14.50;99.90;;;;;;4917988;29;20055;-86
2022/05/21 07:00:46;;;;;;;10.63;2.55;;;14.40;99.90;;;;;;4921508;29;20052;-86
2022/05/21 07:03:12;;;;;;;13.50;3.30;;;14.50;99.90;;;;;;4947635;28;20100;-85
2022/05/21 07:08:26;;;;;;;11.60;2.50;;;14.60;99.90;;;;;;4934962;29;20056;-85
2022/05/21 07:10:52;;;;;;;10.07;2.63;;;13.70;99.90;;;;;;4950636;29;20057;-86
2022/05/21 07:13:20;;;;;;;11.40;2.75;;;14.70;99.90;;;;;;4918867;29;20557;-86
2022/05/21 07:15:49;;;;;;;9.38;2.63;;;14.70;99.90;;;;;;4934638;29;20445;-86
2022/05/21 07:18:17;;;;;;;9.98;2.70;;;14.80;99.90;;;;;;4903778;29;20054;-87
2022/05/21 07:20:43;;;;;;;11.15;2.35;;;14.80;99.90;;;;;;4932491;29;20043;-85
2022/05/21 07:23:09;;;;;;;8.18;2.63;;;15.00;99.90;;;;;;4934927;29;20048;-83
2022/05/21 07:25:35;;;;;;;10.70;2.47;;;15.00;99.90;;;;;;4940264;29;20142;-82
2022/05/21 07:28:01;;;;;;;10.95;2.47;;;15.00;99.90;;;;;;4926188;29;20501;-83
2022/05/21 07:30:28;;;;;;;13.10;2.83;;;15.00;99.90;;;;;;4924699;29;20043;-82
2022/05/21 07:32:55;;;;;;;9.98;2.65;;;15.10;99.90;;;;;;4942325;28;20055;-83
2022/05/21 07:35:22;;;;;;;14.68;2.55;;;15.00;99.90;;;;;;4933886;29;20100;-85
2022/05/21 07:37:48;;;;;;;10.95;2.30;;;15.10;99.90;;;;;;4947366;28;20051;-83
2022/05/21 07:40:15;;;;;;;8.68;3.30;;;15.10;99.90;;;;;;4939714;29;20077;-82
2022/05/21 07:42:41;;;;;;;9.48;2.53;;;15.30;99.90;;;;;;4932769;29;20063;-82
2022/05/21 07:45:08;;;;;;;8.60;2.60;;;15.40;99.90;;;;;;4925977;29;20056;-81
2022/05/21 07:47:34;;;;;;;11.30;3.00;;;15.60;99.90;;;;;;4948622;28;20066;-82
2022/05/21 07:50:00;;;;;;;9.57;2.85;;;15.60;99.90;;;;;;4946134;29;20059;-82
2022/05/21 07:52:28;;;;;;;12.23;3.45;;;15.60;99.90;;;;;;4901645;29;20055;-82
2022/05/21 07:54:54;;;;;;;8.55;2.65;;;15.70;99.90;;;;;;4900548;29;20063;-82
2022/05/21 07:57:20;;;;;;;11.63;2.85;;;15.70;99.90;;;;;;4950063;28;20046;-81
2022/05/21 07:59:45;;;;;;;9.93;2.95;;;15.70;99.90;;;;;;4932753;29;20074;-81
2022/05/21 08:02:14;;;;;;;12.65;3.20;;;15.80;99.90;;;;;;4932731;29;20048;-82
2022/05/21 08:04:42;;;;;;;9.77;2.63;;;16.00;99.90;;;;;;4930902;29;20071;-81
2022/05/21 08:07:08;;;;;;;9.27;2.70;;;16.10;99.90;;;;;;4928620;29;20548;-81
2022/05/21 08:09:34;;;;;;;13.52;2.90;;;16.10;99.90;;;;;;4947619;29;20052;-81
2022/05/21 08:12:00;;;;;;;11.35;2.95;;;16.10;99.90;;;;;;4929405;29;20063;-85
2022/05/21 08:14:26;;;;;;;9.40;2.78;;;16.20;99.90;;;;;;4930715;29;20052;-81
2022/05/21 08:16:51;;;;;;;14.75;3.13;;;16.20;99.90;;;;;;4926901;29;20050;-82
2022/05/21 08:19:17;;;;;;;10.30;2.75;;;16.20;99.90;;;;;;4925440;29;20158;-83
2022/05/21 08:21:43;;;;;;;8.55;2.35;;;16.10;99.90;;;;;;4926147;29;20056;-81
2022/05/21 08:26:56;;;;;;;11.35;2.63;;;16.40;99.90;;;;;;4914263;29;20055;-81
2022/05/21 08:29:27;;;;;;;10.52;2.67;;;16.50;99.90;;;;;;4922915;29;20082;-82
2022/05/21 08:31:54;;;;;;;9.65;2.80;;;16.70;99.90;;;;;;4931214;28;20060;-81
2022/05/21 08:34:21;;;;;;;9.55;2.90;;;16.90;99.90;;;;;;4927765;29;20631;-82
2022/05/21 08:36:47;;;;;;;11.95;3.22;;;16.80;99.90;;;;;;4912003;29;20055;-82
2022/05/21 08:39:14;;;;;;;10.85;2.63;;;16.90;99.90;;;;;;4927080;29;20094;-82
2022/05/21 08:41:45;;;;;;;11.63;2.70;;;16.90;99.90;;;;;;4909350;29;20854;-81
2022/05/21 08:44:17;;;;;;;9.25;2.63;;;16.90;99.90;;;;;;4911902;29;20378;-82
2022/05/21 08:47:01;;;;;;;8.43;2.28;;;17.00;99.90;;;;;;4921740;29;20056;-82
2022/05/21 08:49:55;;;;;;;10.65;2.70;;;17.10;99.90;;;;;;4912861;29;20055;-82
2022/05/21 08:52:29;;;;;;;12.60;2.92;;;17.20;99.90;;;;;;4929494;29;20058;-82
2022/05/21 08:54:58;;;;;;;6.47;2.28;;;17.20;99.90;;;;;;4927853;29;20473;-82
2022/05/21 08:57:45;;;;;;;8.38;2.50;;;17.20;99.90;;;;;;4927814;29;20047;-83
2022/05/21 09:00:35;;;;;;;13.02;3.05;;;17.30;99.90;;;;;;4926566;29;20047;-82
2022/05/21 09:03:06;;;;;;;10.80;2.70;;;17.50;99.90;;;;;;4923934;29;20051;-82
2022/05/21 09:05:32;;;;;;;8.43;2.45;;;17.60;99.90;;;;;;4922693;29;20056;-83
2022/05/21 09:08:27;;;;;;;10.23;2.60;;;17.50;99.90;;;;;;4924104;29;20063;-82
2022/05/21 09:11:03;;;;;;;11.23;2.60;;;17.60;99.90;;;;;;4910244;29;20134;-82
2022/05/21 09:13:47;;;;;;;13.18;2.75;;;17.60;99.90;;;;;;4925375;29;20059;-82
2022/05/21 09:19:05;;;;;;;11.00;2.58;;;17.70;99.90;;;;;;4923645;29;20130;-81
2022/05/21 09:21:35;;;;;;;8.68;2.40;;;17.80;99.90;;;;;;4925829;29;20057;-81
2022/05/21 09:24:03;;;;;;;9.30;2.25;;;17.90;99.90;;;;;;4939263;28;20051;-83
2022/05/21 09:26:43;;;;;;;10.63;2.75;;;17.90;99.90;;;;;;4905229;29;20052;-83
2022/05/21 09:29:17;;;;;;;10.00;2.90;;;17.90;99.90;;;;;;4926913;29;20044;-80
2022/05/21 09:31:43;;;;;;;11.70;2.78;;;17.90;99.90;;;;;;4926368;29;20054;-81
2022/05/21 09:34:30;;;;;;;12.23;2.70;;;17.90;99.90;;;;;;4922693;29;20059;-80
2022/05/21 09:36:57;;;;;;;12.23;2.75;;;18.00;99.90;;;;;;4942912;29;20075;-80
2022/05/21 09:39:38;;;;;;;11.00;2.75;;;18.00;99.90;;;;;;4941247;28;20114;-81
2022/05/21 09:45:22;;;;;;;14.40;3.30;;;18.00;99.90;;;;;;4940747;29;20048;-80
2022/05/21 09:45:22;;;;;;;13.38;3.30;;;18.00;99.90;;;;;;4922722;29;20102;-81
2022/05/21 09:48:05;;;;;;;10.27;2.60;;;17.90;99.90;;;;;;4925698;29;20051;-81
2022/05/21 09:50:50;;;;;;;14.40;3.53;;;17.90;99.90;;;;;;4926409;29;20055;-80
2022/05/21 09:53:29;;;;;;;9.60;2.95;;;18.00;99.90;;;;;;4927054;29;20082;-83
2022/05/21 09:56:06;;;;;;;8.98;2.78;;;18.10;99.90;;;;;;4909064;29;20059;-82
2022/05/21 09:58:41;;;;;;;12.85;3.15;;;18.10;99.90;;;;;;4924656;29;20051;-84
2022/05/21 10:01:12;;;;;;;12.05;3.38;;;18.10;99.90;;;;;;4910243;29;20044;-82
2022/05/21 10:03:51;;;;;;;9.10;2.40;;;18.20;99.90;;;;;;4925251;29;20051;-82
2022/05/21 10:06:30;;;;;;;12.10;3.60;;;18.40;99.90;;;;;;4908827;29;20071;-82
2022/05/21 10:12:15;;;;;;;12.95;3.05;;;18.20;99.90;;;;;;4925460;29;20048;-82
2022/05/21 10:15:17;;;;;;;12.35;3.10;;;18.20;99.90;;;;;;4941733;28;20122;-80
2022/05/21 10:17:52;;;;;;;9.80;2.65;;;18.00;99.90;;;;;;4926667;28;20087;-80
2022/05/21 10:20:23;;;;;;;11.50;3.13;;;17.70;99.90;;;;;;4924395;29;20950;-79
2022/05/21 10:23:15;;;;;;;10.60;2.78;;;17.60;99.90;;;;;;4942780;28;20392;-82
2022/05/21 10:25:49;;;;;;;13.23;3.15;;;17.60;99.90;;;;;;4924102;29;20054;-82
2022/05/21 10:28:38;;;;;;;12.90;2.92;;;17.50;99.90;;;;;;4912085;29;20059;-82
2022/05/21 10:31:09;;;;;;;15.82;3.25;;;17.40;99.90;;;;;;4944939;28;20138;-81
2022/05/21 10:33:52;;;;;;;13.95;2.75;;;17.40;99.90;;;;;;4911498;29;20137;-81
2022/05/21 10:36:55;;;;;;;11.63;3.08;;;17.10;99.90;;;;;;4943331;28;20354;-80
2022/05/21 10:39:23;;;;;;;12.40;2.75;;;17.30;99.90;;;;;;4910723;29;20056;-82
2022/05/21 10:42:09;;;;;;;9.65;3.08;;;17.50;99.90;;;;;;4943195;29;20130;-82
2022/05/21 10:44:38;;;;;;;11.85;3.10;;;17.90;99.90;;;;;;4912265;29;20052;-83
2022/05/21 10:47:24;;;;;;;12.68;3.25;;;18.20;99.90;;;;;;4926433;29;20052;-83
2022/05/21 10:50:02;;;;;;;16.05;2.78;;;18.40;99.90;;;;;;4942645;29;20062;-83
2022/05/21 10:52:31;;;;;;;9.38;2.30;;;18.60;99.90;;;;;;4926598;29;20047;-82
2022/05/21 10:55:09;;;;;;;11.70;2.75;;;18.70;99.90;;;;;;4929826;29;20138;-81
2022/05/21 10:58:04;;;;;;;12.70;3.25;;;19.10;99.90;;;;;;4945945;29;20052;-81
2022/05/21 11:00:48;;;;;;;9.57;3.03;;;19.30;99.90;;;;;;4933140;28;20052;-81
2022/05/21 11:03:32;;;;;;;9.85;2.85;;;19.20;99.90;;;;;;4944893;28;20102;-81
2022/05/21 11:06:15;;;;;;;13.40;2.85;;;19.20;99.90;;;;;;4922771;29;20062;-81
2022/05/21 11:08:56;;;;;;;16.08;3.17;;;19.20;99.90;;;;;;4946242;28;20398;-81
2022/05/21 11:11:43;;;;;;;9.65;2.20;;;19.20;99.90;;;;;;4942052;29;20142;-81
2022/05/21 11:14:33;;;;;;;12.90;3.03;;;19.40;99.90;;;;;;4943559;28;20051;-81
2022/05/21 11:17:07;;;;;;;12.63;3.13;;;19.50;99.90;;;;;;4928565;29;20434;-81
2022/05/21 11:19:53;;;;;;;8.95;2.45;;;19.70;99.90;;;;;;4943205;28;20390;-81
2022/05/21 11:22:45;;;;;;;8.60;2.42;;;19.90;99.90;;;;;;4927673;29;20054;-81
2022/05/21 11:25:13;;;;;;;10.23;2.90;;;19.90;99.90;;;;;;4912485;29;20061;-82
2022/05/21 11:27:49;;;;;;;11.82;2.63;;;20.00;99.90;;;;;;4913640;29;20170;-83
2022/05/21 11:30:19;;;;;;;10.18;2.85;;;20.20;99.90;;;;;;4926979;29;20047;-83
2022/05/21 11:38:47;;;;;;;12.80;2.72;;;19.70;99.90;;;;;;4927759;29;20048;-82
2022/05/21 11:41:25;;;;;;;10.77;2.97;;;19.60;99.90;;;;;;4938246;28;20055;-81
2022/05/21 11:47:13;;;;;;;11.85;3.13;;;19.30;99.90;;;;;;4925409;29;20048;-82
2022/05/21 11:50:06;;;;;;;14.57;3.08;;;19.20;99.90;;;;;;4913714;29;20516;-83
2022/05/21 11:52:34;;;;;;;12.85;3.17;;;19.20;99.90;;;;;;4930901;29;20059;-83
2022/05/21 11:55:02;;;;;;;11.77;3.22;;;19.10;99.90;;;;;;4915937;29;20202;-82
2022/05/21 11:57:34;;;;;;;12.25;2.65;;;18.80;99.90;;;;;;4932649;29;20109;-82
2022/05/21 12:00:17;;;;;;;15.20;2.83;;;18.70;99.90;;;;;;4930534;29;20075;-83
2022/05/21 12:02:55;;;;;;;12.82;3.17;;;18.70;99.90;;;;;;4947655;28;20055;-83
2022/05/21 12:05:33;;;;;;;14.63;2.72;;;18.70;99.90;;;;;;4933115;29;20143;-83
2022/05/21 12:08:16;;;;;;;11.30;2.83;;;18.70;99.90;;;;;;4931912;29;20060;-83
2022/05/21 12:11:04;;;;;;;10.27;2.60;;;18.80;99.90;;;;;;4931323;29;20052;-83
2022/05/21 12:13:33;;;;;;;9.52;2.50;;;19.10;99.90;;;;;;4931439;29;20058;-83
2022/05/21 12:16:01;;;;;;;12.73;2.90;;;19.40;99.90;;;;;;4946669;28;20059;-82
2022/05/21 12:18:32;;;;;;;11.07;2.88;;;19.40;99.90;;;;;;4946758;29;20485;-83
2022/05/21 12:20:58;;;;;;;11.68;2.85;;;19.20;99.90;;;;;;4930429;29;20123;-83
2022/05/21 12:23:33;;;;;;;13.60;3.33;;;18.80;99.90;;;;;;4942556;28;20044;-82
2022/05/21 12:26:20;;;;;;;15.27;3.00;;;18.70;99.90;;;;;;4928527;29;20442;-83
2022/05/21 12:28:55;;;;;;;11.32;2.70;;;18.80;99.90;;;;;;4925715;29;20493;-81
2022/05/21 12:31:45;;;;;;;12.02;3.20;;;19.00;99.90;;;;;;4931642;29;20079;-81
2022/05/21 12:34:23;;;;;;;13.15;3.08;;;18.80;99.90;;;;;;4944274;28;20044;-83
2022/05/21 12:37:10;;;;;;;11.15;2.80;;;18.80;99.90;;;;;;4930752;29;20054;-84
2022/05/21 12:40:13;;;;;;;9.93;3.15;;;18.70;99.90;;;;;;4930901;29;20441;-83
2022/05/21 12:42:57;;;;;;;8.82;2.10;;;19.00;99.90;;;;;;4948764;28;20470;-84
2022/05/21 12:45:37;;;;;;;10.35;2.50;;;19.00;99.90;;;;;;4915227;29;20051;-84
2022/05/21 12:48:12;;;;;;;11.20;2.92;;;18.90;99.90;;;;;;4915526;29;20064;-83
2022/05/21 12:50:52;;;;;;;8.98;2.50;;;18.80;99.90;;;;;;4948135;29;20114;-83
2022/05/21 12:53:24;;;;;;;8.82;2.47;;;18.50;99.90;;;;;;4947331;29;20058;-84
2022/05/21 12:56:29;;;;;;;14.15;2.83;;;18.70;99.90;;;;;;4947186;28;20055;-83
2022/05/21 12:59:14;;;;;;;12.50;2.42;;;18.60;99.90;;;;;;4916780;29;20083;-83
2022/05/21 13:01:52;;;;;;;14.32;2.42;;;18.90;99.90;;;;;;4929241;29;20044;-82
2022/05/21 13:04:24;;;;;;;10.07;2.13;;;19.00;99.90;;;;;;4931019;29;20058;-83
2022/05/21 13:07:21;;;;;;;10.25;2.33;;;19.20;99.90;;;;;;4911823;29;20121;-83
2022/05/21 13:09:54;;;;;;;;;;;19.50;99.90;;;;;;4931176;28;20239;-82
2022/05/21 13:12:21;;;;;;;11.15;3.28;;;19.20;99.90;;;;;;4929526;29;19954;-81
2022/05/21 13:14:48;;;;;;;12.57;3.17;;;19.10;99.90;;;;;;4898965;29;20097;-83
2022/05/21 13:17:41;;;;;;;10.88;2.55;;;18.70;99.90;;;;;;4944562;29;20047;-82
2022/05/21 13:20:25;;;;;;;10.95;2.38;;;18.90;99.90;;;;;;4921672;29;20087;-83
2022/05/21 13:23:19;;;;;;;8.80;2.70;;;18.90;99.90;;;;;;4929761;29;20193;-83
2022/05/21 13:25:55;;;;;;;10.15;2.10;;;18.70;99.90;;;;;;4946729;29;20051;-82
2022/05/21 13:28:22;;;;;;;;;;;18.30;99.90;;;;;;4931118;29;20107;-82
2022/05/21 13:30:51;;;;;;;9.52;2.30;;;18.20;99.90;;;;;;4914458;29;19969;-82
2022/05/21 13:33:52;;;;;;;10.60;2.40;;;18.30;99.90;;;;;;4946456;28;20637;-82
2022/05/21 13:36:25;;;;;;;9.75;2.33;;;18.30;99.90;;;;;;4930643;29;20043;-82
2022/05/21 13:38:56;;;;;;;12.32;2.97;;;18.50;99.90;;;;;;4945235;29;20082;-82
2022/05/21 13:41:36;;;;;;;10.05;2.63;;;18.60;99.90;;;;;;4908002;29;20047;-82